createdAt,value
2023-01-04T00:02:32.797Z,84.07
2023-01-04T00:05:35.524Z,84.55
2023-01-04T00:08:38.232Z,84.75
2023-01-04T00:11:40.858Z,85.03
2023-01-04T00:14:43.512Z,84.96
2023-01-04T00:17:47.828Z,84.37
2023-01-04T00:20:50.496Z,84.91
2023-01-04T00:23:55.062Z,85.11
2023-01-04T00:26:57.654Z,85.30
2023-01-04T00:30:00.167Z,85.09
2023-01-04T00:33:04.169Z,85.01
2023-01-04T00:36:08.653Z,85.32
2023-01-04T00:39:15.387Z,85.17
2023-01-04T00:42:17.989Z,85.40
2023-01-04T00:45:20.513Z,86.01
2023-01-04T00:48:24.433Z,86.54
2023-01-04T00:51:26.856Z,85.17
2023-01-04T00:54:29.741Z,85.20
2023-01-04T00:57:32.341Z,84.43
2023-01-04T01:00:35.431Z,84.64
2023-01-04T01:03:39.761Z,84.54
2023-01-04T01:06:42.822Z,84.45
2023-01-04T01:09:45.437Z,84.37
2023-01-04T01:12:48.082Z,83.99
2023-01-04T01:15:50.853Z,84.38
2023-01-04T01:18:54.853Z,84.24
2023-01-04T01:21:58.178Z,83.98
2023-01-04T01:25:00.956Z,84.08
2023-01-04T01:28:03.586Z,84.38
2023-01-04T01:31:08.843Z,84.98
2023-01-04T01:34:13.000Z,85.02
2023-01-04T01:37:15.998Z,85.13
2023-01-04T01:40:18.738Z,84.63
2023-01-04T01:43:22.879Z,85.35
2023-01-04T01:46:28.531Z,84.84
2023-01-04T01:49:35.175Z,84.77
2023-01-04T01:52:41.553Z,84.61
2023-01-04T01:55:45.586Z,84.54
2023-01-04T01:58:52.471Z,84.80
2023-01-04T02:01:55.199Z,84.13
2023-01-04T02:04:59.855Z,84.80
2023-01-04T02:08:03.945Z,85.17
2023-01-04T02:11:06.920Z,84.98
2023-01-04T02:14:28.565Z,85.34
2023-01-04T02:17:37.609Z,84.80
2023-01-04T02:20:46.014Z,84.97
2023-01-04T02:24:23.081Z,84.59
2023-01-04T02:27:37.748Z,84.70
2023-01-04T02:31:08.771Z,84.83
2023-01-04T02:34:20.113Z,85.27
2023-01-04T02:37:29.707Z,85.47
2023-01-04T02:40:37.715Z,85.19
2023-01-04T02:44:00.614Z,85.21
2023-01-04T02:47:07.861Z,85.75
2023-01-04T02:50:32.967Z,85.76
2023-01-04T02:53:37.078Z,85.56
2023-01-04T02:56:49.138Z,86.35
2023-01-04T03:00:22.155Z,86.35
2023-01-04T03:03:46.825Z,85.80
2023-01-04T03:06:53.988Z,86.01
2023-01-04T03:10:01.753Z,85.83
2023-01-04T03:13:09.555Z,86.34
2023-01-04T03:16:14.778Z,86.29
2023-01-04T03:19:46.748Z,86.34
2023-01-04T03:23:10.188Z,86.24
2023-01-04T03:26:33.411Z,85.99
2023-01-04T03:29:56.112Z,86.55
2023-01-04T03:33:20.402Z,86.21
2023-01-04T03:36:34.329Z,86.28
2023-01-04T03:40:07.635Z,86.44
2023-01-04T03:43:31.912Z,86.33
2023-01-04T03:46:56.667Z,86.54
2023-01-04T03:50:03.034Z,85.95
2023-01-04T03:53:07.878Z,86.05
2023-01-04T03:56:11.788Z,85.81
2023-01-04T03:59:14.258Z,86.13
2023-01-04T04:02:19.608Z,86.26
2023-01-04T04:05:42.836Z,86.51
2023-01-04T04:08:46.860Z,86.13
2023-01-04T04:11:49.570Z,84.42
2023-01-04T04:14:52.181Z,83.61
2023-01-04T04:17:54.709Z,83.73
2023-01-04T04:21:00.482Z,83.17
2023-01-04T04:24:04.496Z,83.36
2023-01-04T04:27:07.145Z,82.78
2023-01-04T04:30:10.532Z,81.75
2023-01-04T04:33:13.190Z,81.47
2023-01-04T04:36:15.699Z,82.41
2023-01-04T04:39:19.652Z,81.89
2023-01-04T04:42:21.259Z,80.52
2023-01-04T04:45:23.877Z,80.65
2023-01-04T04:48:26.543Z,80.65
2023-01-04T04:51:29.368Z,79.58
2023-01-04T04:54:33.305Z,80.33
2023-01-04T04:57:35.767Z,79.03
2023-01-04T05:00:38.381Z,78.82
2023-01-04T05:03:41.103Z,78.75
2023-01-04T05:06:43.917Z,78.62
2023-01-04T05:09:48.487Z,77.10
2023-01-04T05:13:00.563Z,77.27
2023-01-04T05:16:04.315Z,78.55
2023-01-04T05:19:07.058Z,76.37
2023-01-04T05:22:09.880Z,75.53
2023-01-04T05:25:13.861Z,73.22
2023-01-04T05:28:16.461Z,71.71
2023-01-04T05:31:18.141Z,70.38
2023-01-04T05:34:22.435Z,70.21
2023-01-04T05:37:25.770Z,69.63
2023-01-04T05:40:30.193Z,69.60
2023-01-04T05:43:32.960Z,68.01
2023-01-04T05:46:35.810Z,67.50
2023-01-04T05:49:38.419Z,67.55
2023-01-04T05:52:40.973Z,67.95
2023-01-04T05:55:45.096Z,66.95
2023-01-04T05:58:48.207Z,67.25
2023-01-04T06:01:51.250Z,66.72
2023-01-04T06:04:58.715Z,66.77
2023-01-04T06:08:02.050Z,66.33
2023-01-04T06:11:06.351Z,66.69
2023-01-04T06:14:08.964Z,65.92
2023-01-04T06:17:16.541Z,65.24
2023-01-04T06:20:20.462Z,65.30
2023-01-04T06:23:23.039Z,65.07
2023-01-04T06:26:27.023Z,65.41
2023-01-04T06:29:29.784Z,65.60
2023-01-04T06:32:32.559Z,66.05
2023-01-04T06:35:36.020Z,65.75
2023-01-04T06:38:38.925Z,67.12
2023-01-04T06:41:42.899Z,67.11
2023-01-04T06:44:45.622Z,67.25
2023-01-04T06:47:48.767Z,67.87
2023-01-04T06:50:51.747Z,68.38
2023-01-04T06:53:54.435Z,67.83
2023-01-04T06:56:58.461Z,68.71
2023-01-04T07:00:01.071Z,68.68
2023-01-04T07:03:13.342Z,68.82
2023-01-04T07:06:18.274Z,69.79
2023-01-04T07:09:21.056Z,69.46
2023-01-04T07:12:25.313Z,69.24
2023-01-04T07:15:38.349Z,69.58
2023-01-04T07:18:43.104Z,69.34
2023-01-04T07:21:45.829Z,68.46
2023-01-04T07:24:48.527Z,69.10
2023-01-04T07:27:56.100Z,69.06
2023-01-04T07:30:58.798Z,69.86
2023-01-04T07:34:01.913Z,69.63
2023-01-04T07:37:04.902Z,69.59
2023-01-04T07:40:08.565Z,70.60
2023-01-04T07:43:12.587Z,71.41
2023-01-04T07:46:15.520Z,72.51
2023-01-04T07:49:19.318Z,74.10
2023-01-04T07:52:21.773Z,74.63
2023-01-04T07:55:24.495Z,74.75
2023-01-04T07:58:32.593Z,73.82
2023-01-04T08:01:37.827Z,74.50
2023-01-04T08:04:40.888Z,74.81
2023-01-04T08:07:43.529Z,74.68
2023-01-04T08:10:46.226Z,74.42
2023-01-04T08:13:50.244Z,74.17
2023-01-04T08:16:52.878Z,75.04
2023-01-04T08:19:55.526Z,74.37
2023-01-04T08:22:58.144Z,75.12
2023-01-04T08:26:05.078Z,74.65
2023-01-04T08:29:09.484Z,74.73
2023-01-04T08:32:12.086Z,75.48
2023-01-04T08:35:14.641Z,73.93
2023-01-04T08:38:56.189Z,72.66
2023-01-04T08:42:04.778Z,72.74
2023-01-04T08:45:15.095Z,71.44
2023-01-04T08:48:24.211Z,71.12
2023-01-04T08:51:27.195Z,70.80
2023-01-04T08:54:29.918Z,68.92
2023-01-04T08:57:32.663Z,67.99
2023-01-04T09:00:37.042Z,67.63
2023-01-04T09:03:39.837Z,66.04
2023-01-04T09:06:42.937Z,65.03
2023-01-04T09:09:45.620Z,64.92
2023-01-04T09:12:48.320Z,64.25
2023-01-04T09:15:52.623Z,64.21
2023-01-04T09:18:56.473Z,63.32
2023-01-04T09:21:59.172Z,62.87
2023-01-04T09:25:02.095Z,61.48
2023-01-04T09:28:05.048Z,61.58
2023-01-04T09:31:11.332Z,60.25
2023-01-04T09:34:16.491Z,59.81
2023-01-04T09:37:20.150Z,59.69
2023-01-04T09:40:27.443Z,59.13
2023-01-04T09:43:39.569Z,59.15
2023-01-04T09:46:46.946Z,59.09
2023-01-04T09:49:53.205Z,59.18
2023-01-04T09:53:02.849Z,59.34
2023-01-04T09:56:11.121Z,59.39
2023-01-04T09:59:17.185Z,59.45
2023-01-04T10:02:26.894Z,58.94
2023-01-04T10:05:31.535Z,59.67
2023-01-04T10:08:34.276Z,59.55
2023-01-04T10:11:49.970Z,59.63
2023-01-04T10:15:01.711Z,59.34
2023-01-04T10:21:41.576Z,58.62
2023-01-04T10:24:50.966Z,59.05
2023-01-04T10:28:08.966Z,58.46
2023-01-04T10:31:40.694Z,58.83
2023-01-04T10:34:41.736Z,58.58
2023-01-04T10:37:44.473Z,57.97
2023-01-04T10:40:48.763Z,58.25
2023-01-04T10:44:12.313Z,57.82
2023-01-04T10:47:20.631Z,57.27
2023-01-04T10:50:28.463Z,56.28
2023-01-04T10:53:35.255Z,55.44
2023-01-04T10:56:43.808Z,56.17
2023-01-04T10:59:48.562Z,56.54
2023-01-04T11:02:54.535Z,55.27
2023-01-04T11:06:02.730Z,56.29
2023-01-04T11:09:09.593Z,56.40
2023-01-04T11:12:16.040Z,55.19
2023-01-04T11:15:18.754Z,55.03
2023-01-04T11:18:21.441Z,54.50
2023-01-04T11:21:28.632Z,54.56
2023-01-04T11:24:33.743Z,55.77
2023-01-04T11:27:41.583Z,56.06
2023-01-04T11:30:51.199Z,54.66
2023-01-04T11:33:56.439Z,54.41
2023-01-04T11:37:00.533Z,54.87
2023-01-04T11:40:24.557Z,54.73
2023-01-04T11:43:28.688Z,53.56
2023-01-04T11:46:32.611Z,54.07
2023-01-04T11:49:36.377Z,55.36
2023-01-04T11:52:45.660Z,56.16
2023-01-04T11:55:48.360Z,55.38
2023-01-04T11:59:25.320Z,55.26
2023-01-04T12:02:59.560Z,54.91
2023-01-04T12:05:51.065Z,54.98
2023-01-04T12:08:55.062Z,55.29
2023-01-04T12:12:00.152Z,55.65
2023-01-04T12:15:06.964Z,56.13
2023-01-04T12:18:17.686Z,56.21
2023-01-04T12:21:22.223Z,56.01
2023-01-04T12:24:28.568Z,55.67
2023-01-04T12:27:31.234Z,56.33
2023-01-04T12:30:36.475Z,56.31
2023-01-04T12:33:40.439Z,56.38
2023-01-04T12:37:04.498Z,56.99
2023-01-04T12:40:37.926Z,57.69
2023-01-04T12:43:46.943Z,56.94
2023-01-04T12:47:10.319Z,56.37
2023-01-04T12:50:14.558Z,56.35
2023-01-04T12:53:54.572Z,56.06
2023-01-04T12:57:25.390Z,56.38
2023-01-04T13:01:24.909Z,55.56
2023-01-04T13:04:31.025Z,55.35
2023-01-04T13:07:41.449Z,55.41
2023-01-04T13:10:49.109Z,56.64
2023-01-04T13:13:57.002Z,57.13
2023-01-04T13:17:21.403Z,57.29
2023-01-04T13:20:26.162Z,57.55
2023-01-04T13:23:28.997Z,57.57
2023-01-04T13:26:37.879Z,57.23
2023-01-04T13:29:41.808Z,56.40
2023-01-04T13:33:24.362Z,56.68
2023-01-04T13:36:12.526Z,56.47
2023-01-04T13:39:15.611Z,56.82
2023-01-04T13:42:24.846Z,57.06
2023-01-04T13:45:50.983Z,56.91
2023-01-04T13:49:00.979Z,57.93
2023-01-04T13:52:46.243Z,56.99
2023-01-04T13:55:39.398Z,57.90
2023-01-04T13:58:44.627Z,57.22
2023-01-04T14:01:48.976Z,57.35
2023-01-04T14:04:52.994Z,57.41
2023-01-04T14:07:55.676Z,57.34
2023-01-04T14:10:58.746Z,58.08
2023-01-04T14:14:01.324Z,57.52
2023-01-04T14:17:16.571Z,57.50
2023-01-04T14:20:38.518Z,57.63
2023-01-04T14:23:41.259Z,58.00
2023-01-04T14:26:44.029Z,58.63
2023-01-04T14:29:46.609Z,59.00
2023-01-04T14:32:55.245Z,58.65
2023-01-04T14:36:12.452Z,58.49
2023-01-04T14:39:39.389Z,59.42
2023-01-04T14:42:42.188Z,58.05
2023-01-04T14:45:44.752Z,59.05
2023-01-04T14:48:47.582Z,58.56
2023-01-04T14:51:53.695Z,58.35
2023-01-04T14:54:56.376Z,58.68
2023-01-04T14:57:59.206Z,58.51
2023-01-04T15:01:02.185Z,59.01
2023-01-04T15:04:05.299Z,58.79
2023-01-04T15:07:35.960Z,60.31
2023-01-04T15:10:38.670Z,60.38
2023-01-04T15:13:41.315Z,60.00
2023-01-04T15:16:44.125Z,60.84
2023-01-04T15:19:47.256Z,61.67
2023-01-04T15:22:51.162Z,61.02
2023-01-04T15:25:53.871Z,62.09
2023-01-04T15:28:56.890Z,62.15
2023-01-04T15:31:59.876Z,62.59
2023-01-04T15:35:02.754Z,61.67
2023-01-04T15:38:07.507Z,62.24
2023-01-04T15:41:34.470Z,62.29
2023-01-04T15:44:37.495Z,62.40
2023-01-04T15:47:40.310Z,62.69
2023-01-04T15:50:43.241Z,62.26
2023-01-04T15:53:47.284Z,64.43
2023-01-04T15:56:50.072Z,63.32
2023-01-04T15:59:52.896Z,61.83
2023-01-04T16:02:55.661Z,62.18
2023-01-04T16:05:58.571Z,62.17
2023-01-04T16:09:02.756Z,62.41
2023-01-04T16:12:23.868Z,62.75
2023-01-04T16:15:27.380Z,62.20
2023-01-04T16:18:32.540Z,62.32
2023-01-04T16:21:35.655Z,61.85
2023-01-04T16:28:02.443Z,61.83
2023-01-04T16:31:06.211Z,61.64
2023-01-04T16:34:09.250Z,61.74
2023-01-04T16:37:12.185Z,61.19
2023-01-04T16:40:16.473Z,60.98
2023-01-04T16:43:31.456Z,62.28
2023-01-04T16:46:51.040Z,61.94
2023-01-04T16:49:57.895Z,61.18
2023-01-04T16:53:00.592Z,61.07
2023-01-04T16:56:05.853Z,60.67
2023-01-04T16:59:08.851Z,61.16
2023-01-04T17:02:13.036Z,61.01
2023-01-04T17:05:15.961Z,60.81
2023-01-04T17:08:23.605Z,61.18
2023-01-04T17:12:19.294Z,60.81
2023-01-04T17:15:23.722Z,60.18
2023-01-04T17:18:22.872Z,60.94
2023-01-04T17:21:35.330Z,60.54
2023-01-04T17:24:38.375Z,60.85
2023-01-04T17:27:42.694Z,61.27
2023-01-04T17:30:45.415Z,60.74
2023-01-04T17:33:48.281Z,61.13
2023-01-04T17:36:51.048Z,61.13
2023-01-04T17:39:54.521Z,61.37
2023-01-04T17:42:58.933Z,61.27
2023-01-04T17:46:02.631Z,61.50
2023-01-04T17:49:22.162Z,61.03
2023-01-04T17:52:31.015Z,61.19
2023-01-04T17:55:34.920Z,62.21
2023-01-04T17:58:39.640Z,61.74
2023-01-04T18:01:42.514Z,62.05
2023-01-04T18:04:45.624Z,62.23
2023-01-04T18:07:48.262Z,62.18
2023-01-04T18:11:07.147Z,62.12
2023-01-04T18:14:14.047Z,62.59
2023-01-04T18:17:17.151Z,63.59
2023-01-04T18:20:24.857Z,63.46
2023-01-04T18:23:30.435Z,63.17
2023-01-04T18:26:41.534Z,63.22
2023-01-04T18:29:57.145Z,64.59
2023-01-04T18:32:59.834Z,64.90
2023-01-04T18:36:03.176Z,65.04
2023-01-04T18:39:06.343Z,64.14
2023-01-04T18:42:09.280Z,65.15
2023-01-04T18:45:13.575Z,64.89
2023-01-04T18:48:16.190Z,64.06
2023-01-04T18:51:20.071Z,64.55
2023-01-04T18:54:22.721Z,63.85
2023-01-04T18:57:25.372Z,64.31
2023-01-04T19:00:29.967Z,64.55
2023-01-04T19:03:33.393Z,63.95
2023-01-04T19:06:35.946Z,64.65
2023-01-04T19:09:40.045Z,65.37
2023-01-04T19:12:43.954Z,65.25
2023-01-04T19:15:48.024Z,65.24
2023-01-04T19:18:50.782Z,65.56
2023-01-04T19:21:53.492Z,65.49
2023-01-04T19:24:56.120Z,65.70
2023-01-04T19:28:03.238Z,65.68
2023-01-04T19:31:11.345Z,66.34
2023-01-04T19:34:14.125Z,65.55
2023-01-04T19:37:16.677Z,65.82
2023-01-04T19:40:19.433Z,66.08
2023-01-04T19:43:21.965Z,66.21
2023-01-04T19:46:26.214Z,67.42
2023-01-04T19:49:28.821Z,67.84
2023-01-04T19:52:34.279Z,67.47
2023-01-04T19:55:39.776Z,68.47
2023-01-04T19:58:42.362Z,68.67
2023-01-04T20:01:46.506Z,68.42
2023-01-04T20:04:49.166Z,68.47
2023-01-04T20:07:51.847Z,68.35
2023-01-04T20:10:55.196Z,68.45
2023-01-04T20:13:57.756Z,69.45
2023-01-04T20:17:01.638Z,70.24
2023-01-04T20:20:05.187Z,69.83
2023-01-04T20:23:07.987Z,70.98
2023-01-04T20:26:14.296Z,70.34
2023-01-04T20:29:16.963Z,71.10
2023-01-04T20:32:20.974Z,70.70
2023-01-04T20:35:25.059Z,71.15
2023-01-04T20:38:27.659Z,71.05
2023-01-04T20:41:31.766Z,70.86
2023-01-04T20:44:33.454Z,71.08
2023-01-04T20:47:37.413Z,70.44
2023-01-04T20:50:40.393Z,70.15
2023-01-04T20:53:43.293Z,70.85
2023-01-04T20:56:45.920Z,70.44
2023-01-04T20:59:48.462Z,70.35
2023-01-04T21:02:52.574Z,70.53
2023-01-04T21:05:55.239Z,70.75
2023-01-04T21:08:57.884Z,71.26
2023-01-04T21:12:06.867Z,70.87
2023-01-04T21:15:10.903Z,70.88
2023-01-04T21:18:15.856Z,70.88
2023-01-04T21:21:19.986Z,70.23
2023-01-04T21:24:22.540Z,70.21
2023-01-04T21:27:26.536Z,70.47
2023-01-04T21:30:29.245Z,70.30
2023-01-04T21:33:33.325Z,70.77
2023-01-04T21:36:35.931Z,69.96
2023-01-04T21:39:38.529Z,70.62
2023-01-04T21:42:41.326Z,70.95
2023-01-04T21:45:43.992Z,70.89
2023-01-04T21:48:48.331Z,71.45
2023-01-04T21:51:50.910Z,71.87
2023-01-04T21:54:54.752Z,72.10
2023-01-04T21:57:57.319Z,71.45
2023-01-04T22:01:00.050Z,71.87
2023-01-04T22:04:04.395Z,71.99
2023-01-04T22:07:07.189Z,72.65
2023-01-04T22:10:10.159Z,71.70
2023-01-04T22:13:12.686Z,71.24
2023-01-04T22:16:16.408Z,70.86
2023-01-04T22:19:20.517Z,71.43
2023-01-04T22:22:23.616Z,71.94
2023-01-04T22:25:26.191Z,71.02
2023-01-04T22:28:36.260Z,71.71
2023-01-04T22:31:39.794Z,71.98
2023-01-04T22:34:43.795Z,72.66
2023-01-04T22:37:46.385Z,72.60
2023-01-04T22:40:48.933Z,72.39
2023-01-04T22:43:56.365Z,72.51
2023-01-04T22:46:59.259Z,72.35
2023-01-04T22:50:03.218Z,72.48
2023-01-04T22:53:06.072Z,71.82
2023-01-04T22:56:18.834Z,71.88
2023-01-04T22:59:23.174Z,71.91
2023-01-04T23:02:25.783Z,71.90
2023-01-04T23:05:29.798Z,72.03
2023-01-04T23:08:32.810Z,71.83
2023-01-04T23:11:37.216Z,72.21
2023-01-04T23:14:39.755Z,72.85
2023-01-04T23:17:42.350Z,72.89
2023-01-04T23:20:53.716Z,72.85
2023-01-04T23:23:56.236Z,73.28
2023-01-04T23:26:58.906Z,73.64
2023-01-04T23:30:01.667Z,72.71
2023-01-04T23:33:04.449Z,72.74
2023-01-04T23:36:09.877Z,72.02
2023-01-04T23:39:14.666Z,71.80
2023-01-04T23:42:17.187Z,71.82
2023-01-04T23:45:19.879Z,71.24
2023-01-04T23:48:22.625Z,70.76
2023-01-04T23:51:26.584Z,71.21
2023-01-04T23:54:29.380Z,71.18
2023-01-04T23:57:31.933Z,71.10
